Tropical Cyclones
[Index]
Main Index Home Page Stock Weather Photos Extreme Storms Discussion Storm News and Storm Chasing Reports Tropical Cyclones / Hurricanes / Typhoons Weather Data and Links Wild Fires / Bushfires Weather Observation Techniques Weather Picture Catalogue Tornado Pictures and Reports Stock Video Footage and DVDs for sale
Season 2004-2005 Tropical Cyclone OLAF Track Map
Season 2004-2005 Summaries (Operational Data): [AU] [SIO] [SPAC] [SH]
<<- Previous TC | 2004-2005 Season | Next TC ->>

click for intensity scale information  Lat/long Grid: Show Hide

 Date Labels: Show Hide

Operational Tropical Cyclone Data : JTWC Advisories

Name: OLAF
Number: 0519

10 Feb 2005 21:00 UTC to 23 Feb 2005 00:00 UTC

    date/time    lat    long     hPa   cat  kts
2005-02-10 21   11.0   177.0W   1004         20          
2005-02-11 06   10.0   178.0W   1000         25          
2005-02-11 18   10.5   178.5W   1000         25          
2005-02-12 00   10.4   179.5W   1000         25          
2005-02-12 06   10.5   178.5W   1000         25          
2005-02-12 12   10.9   178.9W   1000         25          
2005-02-12 18    9.2   178.1W   1000         25          
2005-02-13 00    9.2   178.1W   1000         25          
2005-02-13 06    9.0   177.6W    998         25          
2005-02-13 12    9.2   177.5W    997         30          
2005-02-13 15    9.2   177.5W    995    1    35          
2005-02-13 18    9.4   178.0W    990    1    45          
2005-02-14 00    9.4   178.1W    975    2    60          
2005-02-14 06    9.3   177.7W    970    3    75          
2005-02-14 12    9.5   176.9W    935    4   100          
2005-02-14 18    9.9   175.8W    935    5   115          
2005-02-15 00   10.8   175.0W    930    5   120          
2005-02-15 06   11.7   174.6W    945    4   100          
2005-02-15 12   12.1   173.9W    935    5   115          
2005-02-15 18   12.0   173.3W    930    5   120          
2005-02-16 00   12.2   172.4W    925    5   120          
2005-02-16 06   12.8   171.1W    915    5   125          
2005-02-16 12   13.5   169.9W    915    5   125          
2005-02-16 18   14.5   168.7W    920    5   115          
2005-02-17 00   15.6   168.1W    920    5   115          
2005-02-17 06   16.7   167.1W    915    5   120          
2005-02-17 12   17.8   166.5W    925    4   100          
2005-02-17 18   18.4   165.8W    915    5   115          
2005-02-18 00   19.7   164.3W    920    5   110          
2005-02-18 06   21.4   162.7W    925    4   100          
2005-02-18 12   23.2   161.4W    930    4    95          
2005-02-18 18   25.0   160.9W    950    3    80          
2005-02-19 00   26.5   160.5W    970    3    75          
2005-02-19 06   28.0   160.0W    976    3    65          
2005-02-19 12   29.6   161.0W    978    2    60          
2005-02-19 18   31.0   161.5W    981    2    50          
2005-02-20 00   32.0   161.0W    980    2    50          
2005-02-20 06   34.0   162.0W    980    1    45          
2005-02-20 12   35.0   162.0W    981    1    40          
2005-02-20 18   37.0   163.0W    978    2    50          
2005-02-21 00   38.0   162.5W    977    2    50          
2005-02-21 12   41.0   159.0W    980    2    50          
2005-02-21 18   44.0   157.0W    978    2    50          
2005-02-22 00   45.0   156.0W    972    2    50          
2005-02-22 06   45.0   155.0W    968    2    50          
2005-02-22 12   46.0   152.0W    977    2    55          
2005-02-22 18   47.0   149.0W    981    2    50          
2005-02-23 00   50.0   144.0W    980    1    40          
Winds are 10-min average.

Tropical cyclone tracks developed by Michael Bath using operational warnings and advisories and Google Maps.


[Australian Severe Weather index] [Copyright Notice] [Email Contacts] [Search This Site] [Privacy Policy]
Document: tropical_cyclone_olaf.htm Updated: 28 May 2013